WetterOnline ( https://www.wetteronline.de )

Wetter aktuell Paderborn

Aktuelles Wetter: Bad Lippspringe (158m)

6-stündlich | Neueste Meldungen
Ortszeit Temperatur Wetter
Di, 27.07. 2:00 16.9° C wolkig
Mo, 26.07. 20:00 22.2° C bewölkt
Mo, 26.07. 14:00 26.6° C leicht bewölkt
Mo, 26.07. 8:00 17.3° C bedeckt
Mo, 26.07. 2:00 19.2° C wolkig
So, 25.07. 20:00 24.4° C wolkenlos
So, 25.07. 14:00 21.0° C wolkig
So, 25.07. 8:00 17.7° C wolkig
Ortszeit Temperatur Wetter
Di, 27.07. 5:00 14.7° C wolkig
Di, 27.07. 4:50 14.7° C wolkig
Di, 27.07. 4:40 14.7° C leicht bewölkt
Di, 27.07. 4:30 14.6° C wolkig
Di, 27.07. 4:20 14.6° C wolkig
Di, 27.07. 4:10 15.0° C wolkig
Di, 27.07. 4:00 15.3° C bedeckt
Di, 27.07. 3:30 15.8° C bewölkt
Di, 27.07. 3:00 15.3° C leicht bewölkt
Di, 27.07. 2:30 16.4° C leicht bewölkt
Di, 27.07. 2:00 16.9° C wolkig
Ortszeit Relative Feuchte Sichtweite
Di, 27.07. 2:00 86% 60 km
Mo, 26.07. 20:00 62% 60 km
Mo, 26.07. 14:00 45% 65 km
Mo, 26.07. 8:00 89% 45 km
Mo, 26.07. 2:00 75% 65 km
So, 25.07. 20:00 54% >70 km
So, 25.07. 14:00 73% >70 km
So, 25.07. 8:00 88% 14 km
Ortszeit Relative Feuchte Sichtweite
Di, 27.07. 5:00 94% 40 km
Di, 27.07. 4:50 94% -
Di, 27.07. 4:40 93% -
Di, 27.07. 4:30 92% 30 km
Di, 27.07. 4:20 92% -
Di, 27.07. 4:10 91% -
Di, 27.07. 4:00 91% 40 km
Di, 27.07. 3:30 89% 50 km
Di, 27.07. 3:00 92% 45 km
Di, 27.07. 2:30 87% 55 km
Di, 27.07. 2:00 86% 60 km
Ortszeit Niederschlagsmenge Niederschlagsart
Di, 27.07. 2:00 0.0 l/m2 in 6 Std. -
Mo, 26.07. 20:00 0.1 l/m2 in 12 Std. Regen
Mo, 26.07. 14:00 0.0 l/m2 in 6 Std. -
Mo, 26.07. 8:00 0.0 l/m2 in 12 Std. -
Mo, 26.07. 2:00 0.0 l/m2 in 6 Std. -
So, 25.07. 20:00 0.3 l/m2 in 12 Std. Regen
So, 25.07. 14:00 0.1 l/m2 in 6 Std. Regen
So, 25.07. 8:00 0.4 l/m2 in 12 Std. -
Ortszeit Niederschlagsmenge Niederschlagsart
Di, 27.07. 5:00 0.0 l/m2 in 1 Std. -
Di, 27.07. 4:50 keine Meldung -
Di, 27.07. 4:40 keine Meldung -
Di, 27.07. 4:30 0.0 l/m2 in 1 Std. -
Di, 27.07. 4:20 keine Meldung -
Di, 27.07. 4:10 keine Meldung -
Di, 27.07. 4:00 0.0 l/m2 in 1 Std. -
Di, 27.07. 3:30 0.0 l/m2 in 1 Std. -
Di, 27.07. 3:00 0.0 l/m2 in 1 Std. -
Di, 27.07. 2:30 0.0 l/m2 in 1 Std. -
Di, 27.07. 2:00 0.0 l/m2 in 1 Std. -
Ortszeit Stärke Spitze Richtung
km/h Bft. km/h Grad Sektor
Di, 27.07. 2:00 6 1 22 140° SO
Mo, 26.07. 20:00 11 2 32 300° NW
Mo, 26.07. 14:00 11 2 25 250° W
Mo, 26.07. 8:00 2 1 15 120° SO
Mo, 26.07. 2:00 7 2 18 170° S
So, 25.07. 20:00 6 1 24 180° S
So, 25.07. 14:00 9 2 17 130° SO
So, 25.07. 8:00 0 0 11 - -
Ortszeit Stärke Spitze Richtung
km/h Bft. km/h Grad Sektor
Di, 27.07. 5:00 4 1 7 200° S
Di, 27.07. 4:50 4 1 - 200° S
Di, 27.07. 4:40 4 1 - 190° S
Di, 27.07. 4:30 2 1 7 200° S
Di, 27.07. 4:20 2 1 - 200° S
Di, 27.07. 4:10 6 1 - 160° S
Di, 27.07. 4:00 4 1 11 180° S
Di, 27.07. 3:30 6 1 7 160° S
Di, 27.07. 3:00 4 1 7 120° SO
Di, 27.07. 2:30 6 1 9 160° S
Di, 27.07. 2:00 6 1 11 140° SO
Ortszeit Untergrenze Bedeckung Gattung
total tief tief mittel hoch
Di, 27.07. 2:00 1500 m 5/8 5/8 - - -
Mo, 26.07. 20:00 1500 m 7/8 7/8 - - -
Mo, 26.07. 14:00 1500 m 5/8 3/8 - - -
Mo, 26.07. 8:00 6300 m 8/8 8/8 - - -
Mo, 26.07. 2:00 2100 m 5/8 5/8 - - -
So, 25.07. 20:00 - 0/8 0/8 - - -
So, 25.07. 14:00 1500 m 8/8 1/8 - - -
So, 25.07. 8:00 3000 m 6/8 6/8 - - -
Ortszeit Bedeckungsgrad in Achtel und Wolkenuntergrenze
Di, 27.07. 5:00 1(1020m) 5(2100m) 5(6600m)
Di, 27.07. 4:50 1(1020m) 5(2100m) 5(6600m)
Di, 27.07. 4:40 1(1050m) 4(6600m) 4(7200m)
Di, 27.07. 4:30 5(6600m) 7(7500m) 7(7500m)
Di, 27.07. 4:20 5(6600m) 7(7500m)
Di, 27.07. 4:10 4(6900m) 7(7500m)
Di, 27.07. 4:00 2(3000m) 8(6900m) 8(7800m)
Di, 27.07. 3:30 5(6600m) 8(7200m) 8(8700m)
Di, 27.07. 3:00 2(7800m) 3(8400m)
Di, 27.07. 2:30 2(1500m) 4(2400m)
Di, 27.07. 2:00 5(1500m) 5(2700m)
Ortszeit Luftdruck NN (hPa) Tendenz (hPa in 3 Std.)
Di, 27.07. 2:00 1012 + 0,7
Mo, 26.07. 20:00 1010 0,0
Mo, 26.07. 14:00 1010 - 0,2
Mo, 26.07. 8:00 1011 + 0,4
Mo, 26.07. 2:00 1010 + 0,1
So, 25.07. 20:00 1008 - 0,7
So, 25.07. 14:00 1009 + 0,3
So, 25.07. 8:00 1009 + 0,3
Ortszeit Luftdruck NN (hPa) Tendenz (hPa in 3 Std.)
Di, 27.07. 5:00 1012 - 0,3
Di, 27.07. 4:50 1012 keine Meldung
Di, 27.07. 4:40 1012 keine Meldung
Di, 27.07. 4:30 1012 - 0,5
Di, 27.07. 4:20 1012 keine Meldung
Di, 27.07. 4:10 1012 keine Meldung
Di, 27.07. 4:00 1012 - 0,5
Di, 27.07. 3:30 1012 - 0,4
Di, 27.07. 3:00 1012 0,0
Di, 27.07. 2:30 1012 + 0,5
Di, 27.07. 2:00 1012 + 0,7
Ortszeit Schneehöhe (cm)
Di, 27.07. 2:00 -
Mo, 26.07. 20:00 -
Mo, 26.07. 14:00 -
Mo, 26.07. 8:00 -
Mo, 26.07. 2:00 -
So, 25.07. 20:00 -
So, 25.07. 14:00 -
So, 25.07. 8:00 -
Ortszeit Schneehöhe (cm)
Di, 27.07. 5:00 -
Di, 27.07. 4:50 -
Di, 27.07. 4:40 -
Di, 27.07. 4:30 -
Di, 27.07. 4:20 -
Di, 27.07. 4:10 -
Di, 27.07. 4:00 -
Di, 27.07. 3:30 -
Di, 27.07. 3:00 -
Di, 27.07. 2:30 -
Di, 27.07. 2:00 -
Link zu dieser Seite / Seite empfehlen

Das Wetter in ...